MAS2645 WBKK-WMKK
Flight info
| Callsign | MAS2645 |
|---|---|
| Flight time | N/A |
| Altitude | 36000 |
| Route | EGENU2F VIDIP M758 IDSEL Y335 PADLI Y343 SAROX SAROX1J |
| Aircraft | B738/M-SDE2E3FGHIRWXY/LB1 |
Departure
| Time | 2026-05-08 09:01 |
|---|---|
| Airport | Kota Kinabalu International Airport (WBKK) |
Arrival
| Time | N/A |
|---|---|
| Airport | Kuala Lumpur International Airport (WMKK) |
| Time | Latitude | Longitude | Altitude | Speed | Heading |
|---|---|---|---|---|---|
| 2026-05-08 08:51 | 5.92259 | 116.04988 | 28 ft | 0 kts | 68° |
| 2026-05-08 08:53 | 5.92253 | 116.04972 | 28 ft | 4 kts | 68° |
| 2026-05-08 08:54 | 5.92243 | 116.04946 | 28 ft | 4 kts | 68° |
| 2026-05-08 08:54 | 5.92230 | 116.04923 | 28 ft | 4 kts | 45° |
| 2026-05-08 08:54 | 5.92209 | 116.04910 | 28 ft | 4 kts | 2° |
| 2026-05-08 08:54 | 5.92193 | 116.04913 | 28 ft | 1 kts | 338° |
| 2026-05-08 08:55 | 5.92190 | 116.04914 | 28 ft | 0 kts | 338° |
| 2026-05-08 08:58 | 5.92201 | 116.04909 | 28 ft | 5 kts | 338° |
| 2026-05-08 08:58 | 5.92244 | 116.04892 | 28 ft | 9 kts | 339° |
| 2026-05-08 08:58 | 5.92323 | 116.04860 | 28 ft | 14 kts | 339° |
| 2026-05-08 08:59 | 5.92388 | 116.04828 | 28 ft | 10 kts | 312° |
| 2026-05-08 08:59 | 5.92422 | 116.04766 | 28 ft | 10 kts | 292° |
| 2026-05-08 08:59 | 5.92449 | 116.04701 | 28 ft | 10 kts | 292° |
| 2026-05-08 08:59 | 5.92483 | 116.04641 | 28 ft | 10 kts | 315° |
| 2026-05-08 09:00 | 5.92549 | 116.04622 | 28 ft | 11 kts | 12° |
| 2026-05-08 09:00 | 5.92622 | 116.04651 | 28 ft | 14 kts | 22° |
| 2026-05-08 09:00 | 5.92879 | 116.04759 | 28 ft | 75 kts | 22° |
| 2026-05-08 09:00 | 5.93571 | 116.05052 | 28 ft | 138 kts | 22° |
| 2026-05-08 09:01 | 5.94613 | 116.05478 | 115 ft | 180 kts | 23° |
| 2026-05-08 09:01 | 5.95812 | 116.05835 | 895 ft | 174 kts | 4° |
| 2026-05-08 09:01 | 5.96920 | 116.05845 | 1969 ft | 151 kts | 354° |
| 2026-05-08 09:01 | 5.97957 | 116.05561 | 2469 ft | 167 kts | 339° |
| 2026-05-08 09:02 | 5.99064 | 116.04929 | 2715 ft | 197 kts | 323° |
| 2026-05-08 09:02 | 5.99962 | 116.03882 | 3469 ft | 197 kts | 303° |
| 2026-05-08 09:02 | 6.00722 | 116.02909 | 4712 ft | 168 kts | 310° |
| 2026-05-08 09:02 | 6.01525 | 116.01820 | 4465 ft | 217 kts | 307° |
| 2026-05-08 09:03 | 6.02328 | 116.00512 | 4887 ft | 222 kts | 297° |
| 2026-05-08 09:03 | 6.02941 | 115.99017 | 5022 ft | 240 kts | 296° |
| 2026-05-08 09:03 | 6.03698 | 115.97464 | 5259 ft | 254 kts | 299° |
| 2026-05-08 09:03 | 6.04521 | 115.95857 | 5609 ft | 267 kts | 290° |
| 2026-05-08 09:04 | 6.04631 | 115.93956 | 5879 ft | 286 kts | 260° |
| 2026-05-08 09:04 | 6.04187 | 115.91996 | 6522 ft | 289 kts | 257° |
| 2026-05-08 09:04 | 6.03742 | 115.90018 | 7151 ft | 288 kts | 257° |
| 2026-05-08 09:04 | 6.03215 | 115.88102 | 7931 ft | 284 kts | 254° |
| 2026-05-08 09:05 | 6.02589 | 115.86197 | 8394 ft | 293 kts | 251° |